Terminal Aerodrome Forecast
Issued by NWS Memphis, TN

Home | Current Version | Previous Version | Text Only | Print | Product List | Glossary On
Versions: 1 2 3 4 5 6 7 8 9 10 11 12 13 14 15 16 17 18 19 20 21 22 23 24 25 26 27 28 29 30 31 32 33 34 35 36 37 38 39 40 41 42 43 44 45 46 47 48 49 50
000
FTUS44 KMEG 160526
TAFMKL
TAF
KMKL 160526Z 1606/1706 22008KT 5SM -SHRA BR VCTS SCT010 BKN035CB
      WS020/21050KT
     FM160630 35008KT 3SM -SHRA BR VCTS OVC005CB WS020/21050KT
      TEMPO 1607/1609 1SM TSRA
     FM161300 03007KT 3SM -SHRA BR VCTS BKN006CB
      TEMPO 1619/1622 2SM TSRA
     FM162200 34008KT 4SM -RA BR OVC006
     FM170300 34011KT P6SM OVC007=

USA.gov is the U.S. government's official web portal to all federal, state and local government web resources and services.